createdAt,value
2023-04-26T00:00:57.052Z,99.90
2023-04-26T00:03:27.713Z,99.90
2023-04-26T00:05:56.817Z,99.90
2023-04-26T00:08:25.501Z,99.90
2023-04-26T00:10:54.133Z,99.90
2023-04-26T00:13:22.648Z,99.90
2023-04-26T00:15:51.220Z,99.90
2023-04-26T00:18:19.852Z,99.90
2023-04-26T00:20:49.888Z,99.90
2023-04-26T00:23:18.504Z,99.90
2023-04-26T00:25:47.124Z,99.90
2023-04-26T00:28:16.022Z,99.90
2023-04-26T00:30:47.937Z,99.90
2023-04-26T00:33:16.614Z,99.90
2023-04-26T00:35:45.137Z,99.90
2023-04-26T00:38:15.085Z,99.90
2023-04-26T00:40:43.554Z,99.90
2023-04-26T00:43:12.739Z,99.90
2023-04-26T00:45:41.673Z,99.90
2023-04-26T00:48:10.338Z,99.90
2023-04-26T00:50:38.940Z,99.90
2023-04-26T00:53:09.014Z,99.90
2023-04-26T00:55:39.022Z,99.90
2023-04-26T00:58:07.685Z,99.90
2023-04-26T01:00:36.292Z,99.90
2023-04-26T01:03:05.664Z,99.90
2023-04-26T01:05:34.343Z,99.90
2023-04-26T01:08:04.926Z,99.90
2023-04-26T01:10:34.435Z,99.90
2023-04-26T01:13:05.678Z,99.90
2023-04-26T01:15:34.690Z,99.90
2023-04-26T01:18:03.605Z,99.90
2023-04-26T01:20:32.436Z,99.90
2023-04-26T01:23:02.316Z,99.90
2023-04-26T01:25:31.154Z,99.90
2023-04-26T01:27:59.646Z,99.90
2023-04-26T01:30:28.372Z,99.90
2023-04-26T01:32:56.971Z,99.90
2023-04-26T01:35:25.562Z,99.90
2023-04-26T01:37:53.995Z,99.90
2023-04-26T01:40:23.872Z,99.90
2023-04-26T01:42:52.483Z,99.90
2023-04-26T01:45:21.182Z,99.90
2023-04-26T01:47:49.609Z,99.90
2023-04-26T01:50:18.412Z,99.90
2023-04-26T01:52:46.890Z,99.90
2023-04-26T01:55:15.460Z,99.90
2023-04-26T01:57:45.391Z,99.90
2023-04-26T02:00:14.466Z,99.90
2023-04-26T02:02:43.080Z,99.90
2023-04-26T02:05:13.112Z,99.90
2023-04-26T02:07:41.641Z,99.90
2023-04-26T02:10:18.428Z,99.90
2023-04-26T02:12:48.352Z,99.90
2023-04-26T02:15:16.982Z,99.90
2023-04-26T02:17:45.719Z,99.90
2023-04-26T02:21:00.143Z,99.90
2023-04-26T02:23:28.812Z,99.90
2023-04-26T02:25:57.322Z,99.90
2023-04-26T02:28:27.364Z,99.90
2023-04-26T02:30:56.925Z,99.90
2023-04-26T02:33:25.534Z,99.90
2023-04-26T02:35:54.084Z,99.90
2023-04-26T02:38:22.638Z,99.90
2023-04-26T02:40:53.754Z,99.90
2023-04-26T02:43:22.261Z,99.90
2023-04-26T02:45:52.175Z,99.90
2023-04-26T02:48:20.609Z,99.90
2023-04-26T02:50:49.164Z,99.90
2023-04-26T02:53:18.131Z,99.90
2023-04-26T02:55:46.613Z,99.90
2023-04-26T02:58:15.162Z,99.90
2023-04-26T03:00:47.918Z,99.90
2023-04-26T03:03:18.157Z,99.90
2023-04-26T03:05:46.870Z,99.90
2023-04-26T03:08:15.623Z,99.90
2023-04-26T03:10:45.605Z,99.90
2023-04-26T03:13:15.275Z,99.90
2023-04-26T03:15:47.137Z,99.90
2023-04-26T03:18:15.611Z,99.90
2023-04-26T03:20:45.540Z,99.90
2023-04-26T03:23:14.041Z,99.90
2023-04-26T03:25:42.563Z,99.90
2023-04-26T03:28:11.103Z,99.90
2023-04-26T03:30:39.833Z,99.90
2023-04-26T03:33:08.356Z,99.90
2023-04-26T03:35:36.986Z,99.90
2023-04-26T03:38:06.918Z,99.90
2023-04-26T03:40:35.462Z,99.90
2023-04-26T03:43:04.200Z,99.90
2023-04-26T03:45:32.811Z,99.90
2023-04-26T03:48:01.447Z,99.90
2023-04-26T03:50:30.010Z,99.90
2023-04-26T03:52:58.535Z,99.90
2023-04-26T03:55:29.574Z,99.90
2023-04-26T03:58:00.869Z,99.90
2023-04-26T04:00:29.773Z,99.90
2023-04-26T04:02:58.414Z,99.90
2023-04-26T04:05:27.669Z,99.90
2023-04-26T04:07:57.309Z,99.90
2023-04-26T04:10:27.343Z,99.90
2023-04-26T04:12:56.027Z,99.90
2023-04-26T04:15:25.199Z,99.90
2023-04-26T04:17:53.684Z,99.90
2023-04-26T04:20:22.828Z,99.90
2023-04-26T04:22:51.619Z,99.90
2023-04-26T04:25:21.341Z,99.90
2023-04-26T04:27:52.088Z,99.90
2023-04-26T04:30:20.642Z,99.90
2023-04-26T04:32:49.209Z,99.90
2023-04-26T04:35:17.914Z,99.90
2023-04-26T04:37:46.440Z,99.90
2023-04-26T04:40:15.177Z,99.90
2023-04-26T04:42:44.700Z,99.90
2023-04-26T04:45:14.954Z,99.90
2023-04-26T04:47:43.540Z,99.90
2023-04-26T04:50:12.361Z,99.90
2023-04-26T04:52:41.050Z,99.90
2023-04-26T04:55:10.229Z,99.90
2023-04-26T04:57:40.705Z,99.90
2023-04-26T05:00:14.718Z,99.90
2023-04-26T05:02:43.453Z,99.90
2023-04-26T05:05:12.582Z,99.90
2023-04-26T05:07:41.213Z,99.90
2023-04-26T05:10:10.565Z,99.90
2023-04-26T05:12:39.032Z,99.90
2023-04-26T05:15:09.387Z,99.90
2023-04-26T05:17:39.332Z,99.90
2023-04-26T05:20:09.413Z,99.90
2023-04-26T05:22:37.942Z,99.90
2023-04-26T05:25:08.421Z,99.90
2023-04-26T05:27:37.761Z,99.90
2023-04-26T05:30:08.173Z,99.90
2023-04-26T05:32:36.726Z,99.90
2023-04-26T05:35:07.447Z,99.90
2023-04-26T05:37:36.286Z,99.90
2023-04-26T05:40:06.568Z,99.90
2023-04-26T05:42:35.037Z,99.90
2023-04-26T05:45:04.347Z,99.90
2023-04-26T05:47:32.988Z,99.90
2023-04-26T05:50:01.613Z,99.90
2023-04-26T05:52:31.775Z,99.90
2023-04-26T05:55:02.439Z,99.90
2023-04-26T05:57:31.272Z,99.90
2023-04-26T05:59:59.973Z,99.90
2023-04-26T06:02:28.821Z,99.90
2023-04-26T06:04:58.050Z,99.90
2023-04-26T06:07:26.859Z,99.90
2023-04-26T06:09:56.901Z,99.90
2023-04-26T06:12:25.661Z,99.90
2023-04-26T06:14:54.241Z,99.90
2023-04-26T06:17:22.975Z,99.90
2023-04-26T06:19:51.680Z,99.90
2023-04-26T06:22:20.200Z,99.90
2023-04-26T06:24:48.763Z,99.90
2023-04-26T06:27:18.720Z,99.90
2023-04-26T06:29:47.242Z,99.90
2023-04-26T06:32:15.993Z,99.90
2023-04-26T06:34:45.737Z,99.90
2023-04-26T06:37:14.253Z,99.90
2023-04-26T06:39:42.721Z,99.90
2023-04-26T06:42:11.712Z,99.90
2023-04-26T06:44:41.851Z,99.90
2023-04-26T06:47:11.444Z,99.90
2023-04-26T06:49:39.956Z,99.90
2023-04-26T06:52:09.537Z,99.90
2023-04-26T06:54:45.884Z,99.90
2023-04-26T06:57:18.524Z,99.90
2023-04-26T06:59:48.581Z,99.90
2023-04-26T07:02:17.144Z,99.90
2023-04-26T07:04:45.958Z,99.90
2023-04-26T07:07:15.687Z,99.90
2023-04-26T07:09:44.142Z,99.90
2023-04-26T07:12:13.311Z,99.90
2023-04-26T07:14:43.529Z,99.90
2023-04-26T07:17:13.430Z,99.90
2023-04-26T07:19:41.881Z,99.90
2023-04-26T07:22:10.706Z,99.90
2023-04-26T07:24:39.203Z,99.90
2023-04-26T07:27:07.857Z,99.90
2023-04-26T07:29:36.310Z,99.90
2023-04-26T07:32:05.111Z,99.90
2023-04-26T07:34:35.042Z,99.90
2023-04-26T07:37:03.797Z,99.90
2023-04-26T07:39:32.249Z,99.90
2023-04-26T07:42:00.705Z,99.90
2023-04-26T07:44:29.644Z,99.90
2023-04-26T07:46:58.197Z,99.90
2023-04-26T07:49:26.756Z,99.90
2023-04-26T07:51:58.302Z,99.90
2023-04-26T07:54:26.929Z,99.90
2023-04-26T07:56:55.629Z,99.90
2023-04-26T07:59:24.734Z,99.90
2023-04-26T08:01:53.362Z,99.90
2023-04-26T08:04:34.567Z,99.90
2023-04-26T08:07:04.755Z,99.90
2023-04-26T08:09:33.294Z,99.90
2023-04-26T08:12:01.896Z,99.40
2023-04-26T08:14:31.079Z,98.00
2023-04-26T08:16:59.641Z,99.90
2023-04-26T08:19:31.052Z,99.90
2023-04-26T08:21:59.709Z,99.90
2023-04-26T08:24:29.733Z,99.90
2023-04-26T08:26:59.135Z,66.80
2023-04-26T08:29:29.303Z,53.80
2023-04-26T08:31:57.882Z,51.10
2023-04-26T08:34:27.788Z,48.30
2023-04-26T08:36:56.430Z,43.90
2023-04-26T08:39:25.115Z,44.30
2023-04-26T08:41:56.678Z,39.80
2023-04-26T08:44:26.898Z,40.50
2023-04-26T08:47:03.042Z,38.60
2023-04-26T08:49:41.063Z,40.90
2023-04-26T08:52:12.002Z,44.60
2023-04-26T08:54:41.975Z,55.20
2023-04-26T08:57:11.877Z,70.10
2023-04-26T08:59:41.149Z,95.10
2023-04-26T09:02:12.120Z,99.90
2023-04-26T09:04:41.596Z,98.50
2023-04-26T09:07:11.413Z,99.90
2023-04-26T09:09:44.224Z,99.90
2023-04-26T09:12:14.215Z,70.80
2023-04-26T09:14:42.772Z,55.60
2023-04-26T09:17:26.825Z,48.70
2023-04-26T09:19:55.682Z,43.50
2023-04-26T09:22:31.968Z,38.90
2023-04-26T09:25:01.307Z,43.70
2023-04-26T09:27:39.452Z,36.20
2023-04-26T09:30:11.619Z,33.20
2023-04-26T09:32:52.384Z,30.80
2023-04-26T09:35:27.514Z,31.30
2023-04-26T09:38:03.376Z,30.90
2023-04-26T09:40:35.973Z,28.60
2023-04-26T09:43:07.278Z,29.50
2023-04-26T09:45:46.045Z,29.40
2023-04-26T09:48:16.986Z,31.60
2023-04-26T09:50:46.835Z,31.80
2023-04-26T09:53:28.240Z,30.10
2023-04-26T09:55:57.373Z,31.40
2023-04-26T09:58:27.308Z,29.40
2023-04-26T10:00:56.568Z,31.00
2023-04-26T10:03:25.667Z,32.70
2023-04-26T10:05:55.252Z,31.80
2023-04-26T10:08:23.818Z,31.40
2023-04-26T10:10:52.748Z,28.90
2023-04-26T10:13:21.517Z,29.60
2023-04-26T10:15:52.396Z,28.60
2023-04-26T10:18:20.925Z,32.20
2023-04-26T10:20:54.421Z,34.00
2023-04-26T10:23:25.868Z,30.10
2023-04-26T10:25:54.689Z,27.40
2023-04-26T10:29:02.650Z,28.60
2023-04-26T10:32:05.488Z,31.30
2023-04-26T10:34:37.461Z,35.00
2023-04-26T10:37:10.561Z,39.60
2023-04-26T10:39:39.651Z,52.90
2023-04-26T10:42:25.861Z,49.80
2023-04-26T10:44:55.760Z,36.30
2023-04-26T10:47:30.902Z,37.00
2023-04-26T10:50:11.820Z,40.60
2023-04-26T10:53:04.554Z,37.70
2023-04-26T10:55:43.082Z,39.70
2023-04-26T10:58:30.246Z,46.40
2023-04-26T11:01:11.714Z,49.10
2023-04-26T11:03:42.041Z,54.90
2023-04-26T11:06:14.051Z,42.20
2023-04-26T11:08:43.365Z,35.90
2023-04-26T11:11:13.759Z,35.80
2023-04-26T11:13:43.893Z,35.70
2023-04-26T11:16:13.792Z,42.00
2023-04-26T11:18:43.594Z,38.70
2023-04-26T11:21:17.925Z,37.90
2023-04-26T11:23:56.392Z,31.60
2023-04-26T11:26:25.959Z,29.20
2023-04-26T11:28:54.819Z,32.40
2023-04-26T11:31:23.848Z,37.70
2023-04-26T11:33:52.383Z,32.60
2023-04-26T11:36:25.146Z,28.40
2023-04-26T11:38:54.525Z,28.30
2023-04-26T11:41:25.352Z,30.60
2023-04-26T11:43:55.193Z,29.50
2023-04-26T11:46:24.522Z,27.60
2023-04-26T11:48:54.321Z,25.60
2023-04-26T11:51:24.919Z,26.40
2023-04-26T11:53:54.799Z,24.30
2023-04-26T11:56:24.035Z,27.00
2023-04-26T11:58:54.556Z,25.00
2023-04-26T12:01:24.993Z,27.40
2023-04-26T12:03:55.191Z,29.90
2023-04-26T12:06:33.322Z,35.70
2023-04-26T12:09:05.940Z,35.50
2023-04-26T12:11:35.349Z,36.80
2023-04-26T12:14:05.250Z,39.80
2023-04-26T12:16:34.524Z,35.70
2023-04-26T12:19:07.532Z,32.30
2023-04-26T12:21:44.872Z,34.50
2023-04-26T12:24:30.196Z,36.30
2023-04-26T12:27:00.411Z,31.60
2023-04-26T12:29:32.899Z,31.80
2023-04-26T12:32:02.557Z,32.90
2023-04-26T12:34:31.508Z,35.70
2023-04-26T12:37:01.497Z,33.80
2023-04-26T12:39:30.156Z,31.80
2023-04-26T12:41:58.565Z,32.10
2023-04-26T12:44:27.497Z,33.70
2023-04-26T12:46:56.084Z,36.90
2023-04-26T12:49:24.662Z,38.40
2023-04-26T12:51:56.136Z,37.90
2023-04-26T12:54:29.695Z,36.20
2023-04-26T12:57:01.142Z,37.90
2023-04-26T12:59:33.690Z,37.50
2023-04-26T13:02:04.116Z,39.40
2023-04-26T13:04:33.088Z,43.00
2023-04-26T13:07:01.841Z,42.60
2023-04-26T13:09:32.098Z,40.20
2023-04-26T13:12:00.873Z,40.30
2023-04-26T13:14:30.394Z,41.70
2023-04-26T13:16:59.974Z,40.10
2023-04-26T13:19:28.827Z,36.70
2023-04-26T13:22:02.500Z,34.10
2023-04-26T13:24:33.022Z,33.00
2023-04-26T13:27:04.635Z,35.50
2023-04-26T13:29:34.416Z,33.20
2023-04-26T13:32:04.831Z,36.30
2023-04-26T13:34:36.002Z,33.30
2023-04-26T13:37:08.746Z,32.80
2023-04-26T13:39:41.911Z,33.10
2023-04-26T13:42:11.826Z,33.30
2023-04-26T13:44:41.281Z,35.50
2023-04-26T13:47:09.824Z,34.10
2023-04-26T13:49:40.301Z,30.10
2023-04-26T13:52:12.291Z,30.00
2023-04-26T13:54:42.724Z,30.40
2023-04-26T13:57:11.948Z,30.80
2023-04-26T13:59:40.892Z,31.60
2023-04-26T14:02:09.684Z,31.10
2023-04-26T14:04:38.480Z,28.70
2023-04-26T14:07:07.555Z,29.10
2023-04-26T14:09:36.073Z,27.30
2023-04-26T14:12:08.372Z,27.60
2023-04-26T14:14:37.713Z,29.00
2023-04-26T14:17:06.464Z,27.60
2023-04-26T14:19:35.144Z,27.40
2023-04-26T14:22:03.839Z,29.40
2023-04-26T14:24:32.443Z,31.10
2023-04-26T14:27:03.344Z,30.60
2023-04-26T14:29:33.435Z,33.30
2023-04-26T14:32:02.392Z,31.80
2023-04-26T14:34:31.280Z,31.10
2023-04-26T14:37:01.850Z,35.50
2023-04-26T14:39:30.452Z,36.90
2023-04-26T14:41:59.068Z,36.80
2023-04-26T14:44:27.839Z,32.90
2023-04-26T14:46:57.860Z,32.00
2023-04-26T14:49:26.494Z,33.90
2023-04-26T14:51:55.115Z,33.70
2023-04-26T14:54:23.851Z,32.40
2023-04-26T14:56:52.857Z,33.70
2023-04-26T14:59:21.768Z,33.90
2023-04-26T15:01:53.380Z,33.90
2023-04-26T15:04:23.968Z,33.70
2023-04-26T15:06:52.824Z,35.40
2023-04-26T15:09:21.805Z,37.00
2023-04-26T15:11:50.353Z,38.80
2023-04-26T15:14:18.928Z,40.10
2023-04-26T15:16:47.477Z,41.40
2023-04-26T15:19:16.885Z,43.00
2023-04-26T15:21:46.921Z,41.20
2023-04-26T15:24:15.753Z,41.00
2023-04-26T15:26:44.683Z,40.40
2023-04-26T15:29:16.083Z,39.90
2023-04-26T15:31:54.832Z,40.00
2023-04-26T15:34:25.254Z,39.50
2023-04-26T15:36:55.306Z,41.60
2023-04-26T15:39:23.856Z,46.30
2023-04-26T15:41:52.278Z,48.70
2023-04-26T15:44:21.253Z,58.50
2023-04-26T15:46:49.794Z,51.00
2023-04-26T15:49:18.344Z,52.60
2023-04-26T15:51:46.881Z,58.00
2023-04-26T15:54:16.806Z,52.90
2023-04-26T15:56:46.575Z,62.10
2023-04-26T15:59:15.145Z,53.90
2023-04-26T16:01:43.771Z,52.20
2023-04-26T16:04:12.820Z,51.30
2023-04-26T16:06:42.294Z,55.30
2023-04-26T16:09:24.712Z,56.90
2023-04-26T16:11:55.564Z,60.50
2023-04-26T16:14:24.105Z,67.70
2023-04-26T16:16:52.673Z,81.20
2023-04-26T16:19:21.206Z,73.70
2023-04-26T16:21:49.729Z,99.10
2023-04-26T16:24:18.444Z,99.90
2023-04-26T16:26:47.681Z,99.90
2023-04-26T16:29:17.858Z,97.60
2023-04-26T16:31:46.428Z,99.90
2023-04-26T16:34:15.005Z,99.90
2023-04-26T16:36:43.528Z,99.90
2023-04-26T16:39:15.565Z,99.90
2023-04-26T16:41:44.674Z,99.90
2023-04-26T16:44:13.156Z,99.90
2023-04-26T16:46:43.269Z,99.90
2023-04-26T16:49:12.084Z,99.90
2023-04-26T16:51:42.250Z,97.40
2023-04-26T16:54:10.723Z,97.70
2023-04-26T16:56:39.293Z,99.90
2023-04-26T16:59:07.784Z,99.90
2023-04-26T17:01:36.369Z,99.90
2023-04-26T17:04:06.916Z,99.90
2023-04-26T17:06:35.573Z,99.90
2023-04-26T17:09:04.563Z,99.90
2023-04-26T17:11:34.940Z,99.90
2023-04-26T17:14:04.423Z,99.90
2023-04-26T17:16:33.109Z,99.90
2023-04-26T17:19:02.322Z,99.90
2023-04-26T17:21:33.170Z,99.90
2023-04-26T17:24:01.996Z,99.90
2023-04-26T17:26:31.154Z,99.90
2023-04-26T17:29:00.505Z,99.90
2023-04-26T17:31:30.097Z,99.90
2023-04-26T17:33:58.953Z,99.90
2023-04-26T17:36:28.741Z,99.90
2023-04-26T17:38:59.625Z,99.90
2023-04-26T17:41:28.215Z,99.90
2023-04-26T17:43:57.658Z,99.90
2023-04-26T17:46:27.560Z,99.90
2023-04-26T17:48:57.114Z,99.90
2023-04-26T17:51:25.939Z,99.90
2023-04-26T17:53:54.498Z,99.90
2023-04-26T17:56:25.755Z,99.90
2023-04-26T17:58:54.442Z,99.90
2023-04-26T18:01:23.429Z,99.90
2023-04-26T18:03:53.259Z,99.90
2023-04-26T18:06:22.953Z,99.90
2023-04-26T18:08:52.643Z,99.90
2023-04-26T18:11:22.850Z,99.90
2023-04-26T18:13:53.579Z,99.90
2023-04-26T18:16:22.189Z,99.90
2023-04-26T18:18:50.768Z,99.90
2023-04-26T18:21:19.761Z,99.90
2023-04-26T18:23:48.607Z,99.90
2023-04-26T18:26:17.379Z,99.90
2023-04-26T18:28:46.354Z,99.90
2023-04-26T18:31:16.429Z,99.90
2023-04-26T18:33:45.609Z,99.90
2023-04-26T18:36:14.450Z,99.90
2023-04-26T18:38:43.253Z,99.90
2023-04-26T18:41:11.935Z,99.90
2023-04-26T18:43:40.509Z,99.90
2023-04-26T18:46:09.047Z,99.90
2023-04-26T18:48:40.098Z,99.90
2023-04-26T18:51:09.045Z,99.90
2023-04-26T18:53:37.984Z,99.90
2023-04-26T18:56:07.100Z,99.90
2023-04-26T18:58:36.246Z,99.90
2023-04-26T19:01:04.989Z,99.90
2023-04-26T19:03:33.926Z,99.90
2023-04-26T19:06:08.753Z,99.90
2023-04-26T19:08:37.402Z,99.90
2023-04-26T19:11:06.055Z,99.90
2023-04-26T19:13:34.688Z,99.90
2023-04-26T19:16:04.834Z,99.90
2023-04-26T19:18:33.711Z,99.90
2023-04-26T19:21:06.765Z,99.90
2023-04-26T19:23:35.489Z,99.90
2023-04-26T19:26:05.617Z,99.90
2023-04-26T19:28:34.346Z,99.90
2023-04-26T19:31:02.962Z,99.90
2023-04-26T19:33:32.531Z,99.90
2023-04-26T19:36:01.547Z,99.90
2023-04-26T19:38:32.035Z,99.90
2023-04-26T19:41:02.577Z,99.90
2023-04-26T19:43:31.934Z,99.90
2023-04-26T19:46:00.523Z,99.90
2023-04-26T19:48:29.451Z,99.90
2023-04-26T19:50:58.435Z,99.90
2023-04-26T19:53:27.860Z,99.90
2023-04-26T19:55:58.099Z,99.90
2023-04-26T19:58:26.975Z,99.90
2023-04-26T20:00:56.049Z,99.90
2023-04-26T20:03:25.243Z,99.90
2023-04-26T20:05:54.155Z,99.90
2023-04-26T20:08:23.044Z,99.90
2023-04-26T20:10:51.712Z,99.90
2023-04-26T20:13:21.664Z,99.90
2023-04-26T20:15:50.254Z,99.90
2023-04-26T20:18:18.743Z,99.90
2023-04-26T20:20:48.013Z,99.90
2023-04-26T20:23:16.923Z,99.90
2023-04-26T20:25:45.681Z,99.90
2023-04-26T20:28:14.553Z,99.90
2023-04-26T20:30:44.974Z,99.90
2023-04-26T20:33:13.580Z,99.90
2023-04-26T20:35:42.171Z,99.90
2023-04-26T20:38:10.874Z,99.90
2023-04-26T20:40:39.466Z,99.90
2023-04-26T20:43:08.121Z,99.90
2023-04-26T20:45:36.566Z,99.90
2023-04-26T20:48:07.219Z,99.90
2023-04-26T20:50:36.672Z,99.90
2023-04-26T20:53:05.602Z,99.90
2023-04-26T20:55:34.159Z,99.90
2023-04-26T20:58:02.716Z,99.90
2023-04-26T21:00:31.640Z,99.90
2023-04-26T21:03:00.259Z,99.90
2023-04-26T21:05:30.413Z,99.90
2023-04-26T21:07:59.008Z,99.90
2023-04-26T21:10:27.534Z,99.90
2023-04-26T21:12:56.034Z,99.90
2023-04-26T21:15:24.540Z,99.90
2023-04-26T21:17:53.111Z,99.90
2023-04-26T21:20:21.982Z,99.90
2023-04-26T21:22:51.884Z,99.90
2023-04-26T21:25:35.891Z,99.90
2023-04-26T21:28:04.381Z,99.90
2023-04-26T21:30:33.296Z,99.90
2023-04-26T21:33:01.907Z,99.90
2023-04-26T21:35:30.460Z,99.90
2023-04-26T21:38:00.544Z,99.90
2023-04-26T21:40:29.136Z,99.90
2023-04-26T21:43:04.886Z,99.90
2023-04-26T21:45:34.403Z,99.90
2023-04-26T21:48:03.023Z,99.90
2023-04-26T21:50:32.023Z,99.90
2023-04-26T21:53:02.045Z,99.90
2023-04-26T21:55:30.592Z,99.90
2023-04-26T21:57:59.074Z,99.90
2023-04-26T22:00:28.464Z,99.90
2023-04-26T22:02:57.479Z,99.90
2023-04-26T22:05:26.596Z,99.90
2023-04-26T22:07:55.299Z,99.90
2023-04-26T22:10:25.256Z,99.90
2023-04-26T22:12:53.661Z,99.90
2023-04-26T22:15:22.303Z,99.90
2023-04-26T22:17:50.989Z,99.90
2023-04-26T22:20:19.783Z,99.90
2023-04-26T22:22:48.359Z,99.90
2023-04-26T22:25:16.868Z,99.90
2023-04-26T22:27:46.802Z,99.90
2023-04-26T22:30:24.616Z,99.90
2023-04-26T22:32:57.462Z,99.90
2023-04-26T22:35:27.288Z,99.90
2023-04-26T22:37:55.842Z,99.90
2023-04-26T22:40:24.447Z,99.90
2023-04-26T22:42:54.622Z,99.90
2023-04-26T22:45:23.220Z,99.90
2023-04-26T22:47:51.874Z,99.90
2023-04-26T22:50:21.082Z,99.90
2023-04-26T22:52:49.880Z,99.90
2023-04-26T22:55:18.604Z,99.90
2023-04-26T22:57:47.661Z,99.90
2023-04-26T23:00:18.169Z,99.90
2023-04-26T23:02:46.995Z,99.90
2023-04-26T23:05:15.613Z,99.90
2023-04-26T23:07:44.291Z,99.90
2023-04-26T23:10:13.342Z,99.90
2023-04-26T23:12:42.027Z,99.90
2023-04-26T23:15:11.743Z,99.90
2023-04-26T23:17:41.948Z,99.90
2023-04-26T23:20:14.302Z,99.90
2023-04-26T23:22:43.564Z,99.90
2023-04-26T23:25:12.196Z,99.90
2023-04-26T23:27:41.049Z,99.90
2023-04-26T23:30:10.508Z,99.90
2023-04-26T23:32:40.635Z,99.90
2023-04-26T23:35:10.030Z,99.90
2023-04-26T23:37:38.531Z,99.90
2023-04-26T23:40:09.387Z,99.90
2023-04-26T23:42:38.143Z,99.90
2023-04-26T23:45:07.937Z,99.90
2023-04-26T23:47:36.455Z,99.90
2023-04-26T23:50:07.625Z,99.90
2023-04-26T23:52:36.102Z,99.90
2023-04-26T23:55:04.691Z,99.90
2023-04-26T23:57:33.349Z,99.90
